sensor_id;sensor_type;location;lat;lon;timestamp;pressure;altitude;pressure_sealevel;temperature;humidity
55486;BME280;49383;-25.924;28.194;2022-12-07T00:00:09;85004.35;;;23.40;31.47
55486;BME280;49383;-25.924;28.194;2022-12-07T00:02:33;85028.51;;;23.40;31.71
55486;BME280;49383;-25.924;28.194;2022-12-07T00:04:58;85058.19;;;23.44;31.21
55486;BME280;49383;-25.924;28.194;2022-12-07T00:07:24;85075.81;;;23.67;30.79
55486;BME280;49383;-25.924;28.194;2022-12-07T00:09:48;85083.98;;;23.37;30.46
55486;BME280;49383;-25.924;28.194;2022-12-07T00:12:14;85090.57;;;23.33;30.70
55486;BME280;49383;-25.924;28.194;2022-12-07T00:14:39;85095.37;;;23.58;30.91
55486;BME280;49383;-25.924;28.194;2022-12-07T00:17:04;85098.41;;;23.62;31.14
55486;BME280;49383;-25.924;28.194;2022-12-07T00:19:29;85093.21;;;23.39;31.01
55486;BME280;49383;-25.924;28.194;2022-12-07T00:21:54;85089.56;;;23.86;30.29
55486;BME280;49383;-25.924;28.194;2022-12-07T00:24:19;85084.51;;;23.59;30.26
55486;BME280;49383;-25.924;28.194;2022-12-07T00:26:45;85078.67;;;23.30;30.47
55486;BME280;49383;-25.924;28.194;2022-12-07T00:29:16;85071.76;;;23.28;31.09
55486;BME280;49383;-25.924;28.194;2022-12-07T00:31:36;85066.64;;;23.30;31.00
55486;BME280;49383;-25.924;28.194;2022-12-07T00:34:00;85057.87;;;23.30;30.66
55486;BME280;49383;-25.924;28.194;2022-12-07T00:36:25;85058.26;;;23.53;30.16
55486;BME280;49383;-25.924;28.194;2022-12-07T00:38:50;85061.04;;;23.30;30.21
55486;BME280;49383;-25.924;28.194;2022-12-07T00:41:17;85068.81;;;23.26;30.77
55486;BME280;49383;-25.924;28.194;2022-12-07T00:43:41;85072.22;;;23.24;31.03
55486;BME280;49383;-25.924;28.194;2022-12-07T00:46:05;85070.63;;;23.30;30.71
55486;BME280;49383;-25.924;28.194;2022-12-07T00:48:30;85070.16;;;23.31;30.09
55486;BME280;49383;-25.924;28.194;2022-12-07T00:50:55;85072.73;;;23.55;29.93
55486;BME280;49383;-25.924;28.194;2022-12-07T00:53:20;85072.78;;;23.49;30.17
55486;BME280;49383;-25.924;28.194;2022-12-07T00:55:45;85083.22;;;23.40;30.88
55486;BME280;49383;-25.924;28.194;2022-12-07T00:58:11;85082.94;;;23.16;31.21
55486;BME280;49383;-25.924;28.194;2022-12-07T01:00:36;85072.88;;;23.15;30.88
55486;BME280;49383;-25.924;28.194;2022-12-07T01:03:00;85052.31;;;23.61;30.43
55486;BME280;49383;-25.924;28.194;2022-12-07T01:05:25;85055.14;;;23.39;29.67
55486;BME280;49383;-25.924;28.194;2022-12-07T01:07:50;85064.34;;;23.56;30.33
55486;BME280;49383;-25.924;28.194;2022-12-07T01:10:16;85073.21;;;23.36;30.47
55486;BME280;49383;-25.924;28.194;2022-12-07T01:12:41;85082.04;;;23.13;30.65
55486;BME280;49383;-25.924;28.194;2022-12-07T01:15:07;85079.78;;;23.37;30.02
55486;BME280;49383;-25.924;28.194;2022-12-07T01:17:31;85071.62;;;23.12;29.84
55486;BME280;49383;-25.924;28.194;2022-12-07T01:19:56;85064.08;;;23.11;29.98
55486;BME280;49383;-25.924;28.194;2022-12-07T01:22:21;85064.00;;;23.10;30.27
55486;BME280;49383;-25.924;28.194;2022-12-07T01:24:46;85069.01;;;23.34;30.76
55486;BME280;49383;-25.924;28.194;2022-12-07T01:27:11;85071.03;;;23.35;30.46
55486;BME280;49383;-25.924;28.194;2022-12-07T01:29:36;85069.41;;;23.35;31.15
55486;BME280;49383;-25.924;28.194;2022-12-07T01:32:01;85072.08;;;23.06;31.34
55486;BME280;49383;-25.924;28.194;2022-12-07T01:34:26;85077.45;;;23.12;31.17
55486;BME280;49383;-25.924;28.194;2022-12-07T01:36:51;85069.33;;;23.12;30.33
55486;BME280;49383;-25.924;28.194;2022-12-07T01:39:17;85067.37;;;23.10;30.31
55486;BME280;49383;-25.924;28.194;2022-12-07T01:41:42;85068.10;;;23.34;30.67
55486;BME280;49383;-25.924;28.194;2022-12-07T01:44:14;85075.23;;;23.38;30.81
55486;BME280;49383;-25.924;28.194;2022-12-07T01:46:32;85086.26;;;23.06;31.19
55486;BME280;49383;-25.924;28.194;2022-12-07T01:48:57;85093.81;;;23.02;30.63
55486;BME280;49383;-25.924;28.194;2022-12-07T01:51:22;85095.86;;;23.33;30.45
55486;BME280;49383;-25.924;28.194;2022-12-07T01:53:47;85094.22;;;23.42;30.63
55486;BME280;49383;-25.924;28.194;2022-12-07T01:56:17;85085.81;;;23.42;30.54
55486;BME280;49383;-25.924;28.194;2022-12-07T01:58:37;85084.33;;;23.17;30.68
55486;BME280;49383;-25.924;28.194;2022-12-07T02:01:02;85067.86;;;23.16;30.82
55486;BME280;49383;-25.924;28.194;2022-12-07T02:03:31;85068.17;;;23.17;30.82
55486;BME280;49383;-25.924;28.194;2022-12-07T02:05:53;85079.10;;;23.16;31.46
55486;BME280;49383;-25.924;28.194;2022-12-07T02:08:18;85095.06;;;23.22;31.93
55486;BME280;49383;-25.924;28.194;2022-12-07T02:10:42;85102.44;;;22.97;31.04
55486;BME280;49383;-25.924;28.194;2022-12-07T02:13:11;85104.63;;;23.22;30.70
55486;BME280;49383;-25.924;28.194;2022-12-07T02:15:41;85103.06;;;22.96;31.07
55486;BME280;49383;-25.924;28.194;2022-12-07T02:18:03;85088.86;;;22.97;31.08
55486;BME280;49383;-25.924;28.194;2022-12-07T02:20:28;85083.57;;;22.93;31.18
55486;BME280;49383;-25.924;28.194;2022-12-07T02:23:04;85083.68;;;23.44;31.52
55486;BME280;49383;-25.924;28.194;2022-12-07T02:25:21;85079.83;;;23.21;31.44
55486;BME280;49383;-25.924;28.194;2022-12-07T02:27:44;85090.75;;;23.45;31.18
55486;BME280;49383;-25.924;28.194;2022-12-07T02:30:07;85100.49;;;22.94;30.58
55486;BME280;49383;-25.924;28.194;2022-12-07T02:32:36;85103.05;;;22.91;30.91
55486;BME280;49383;-25.924;28.194;2022-12-07T02:34:58;85108.04;;;23.20;30.97
55486;BME280;49383;-25.924;28.194;2022-12-07T02:37:29;85112.86;;;23.18;31.71
55486;BME280;49383;-25.924;28.194;2022-12-07T02:39:47;85116.24;;;22.93;30.81
55486;BME280;49383;-25.924;28.194;2022-12-07T02:42:14;85127.54;;;23.32;30.79
55486;BME280;49383;-25.924;28.194;2022-12-07T02:44:33;85133.22;;;23.07;30.55
55486;BME280;49383;-25.924;28.194;2022-12-07T02:47:01;85132.76;;;23.03;30.61
55486;BME280;49383;-25.924;28.194;2022-12-07T02:49:24;85131.10;;;23.27;31.35
55486;BME280;49383;-25.924;28.194;2022-12-07T02:51:48;85136.65;;;23.28;31.10
55486;BME280;49383;-25.924;28.194;2022-12-07T02:54:15;85148.29;;;23.04;30.76
55486;BME280;49383;-25.924;28.194;2022-12-07T02:56:43;85153.30;;;22.97;30.21
55486;BME280;49383;-25.924;28.194;2022-12-07T02:59:10;85154.89;;;22.93;30.41
55486;BME280;49383;-25.924;28.194;2022-12-07T03:01:33;85162.77;;;23.20;30.46
55486;BME280;49383;-25.924;28.194;2022-12-07T03:04:00;85173.88;;;23.03;30.58
55486;BME280;49383;-25.924;28.194;2022-12-07T03:06:24;85180.37;;;23.04;30.76
55486;BME280;49383;-25.924;28.194;2022-12-07T03:08:52;85179.43;;;23.19;31.16
55486;BME280;49383;-25.924;28.194;2022-12-07T03:11:11;85172.42;;;22.98;31.43
55486;BME280;49383;-25.924;28.194;2022-12-07T03:13:40;85169.21;;;22.98;30.57
55486;BME280;49383;-25.924;28.194;2022-12-07T03:16:03;85164.84;;;23.13;30.89
55486;BME280;49383;-25.924;28.194;2022-12-07T03:18:28;85160.66;;;22.91;30.33
55486;BME280;49383;-25.924;28.194;2022-12-07T03:20:53;85160.01;;;23.08;30.89
55486;BME280;49383;-25.924;28.194;2022-12-07T03:23:16;85162.14;;;22.89;31.25
55486;BME280;49383;-25.924;28.194;2022-12-07T03:25:42;85167.13;;;22.91;30.57
55486;BME280;49383;-25.924;28.194;2022-12-07T03:28:06;85166.54;;;23.10;30.39
55486;BME280;49383;-25.924;28.194;2022-12-07T03:30:34;85166.09;;;23.05;30.19
55486;BME280;49383;-25.924;28.194;2022-12-07T03:32:59;85157.90;;;22.80;30.40
55486;BME280;49383;-25.924;28.194;2022-12-07T03:35:23;85162.34;;;22.77;31.03
55486;BME280;49383;-25.924;28.194;2022-12-07T03:37:48;85156.75;;;23.04;30.92
55486;BME280;49383;-25.924;28.194;2022-12-07T03:40:14;85163.94;;;22.50;30.75
55486;BME280;49383;-25.924;28.194;2022-12-07T03:42:35;85170.80;;;23.01;30.46
55486;BME280;49383;-25.924;28.194;2022-12-07T03:45:00;85178.46;;;22.99;29.88
55486;BME280;49383;-25.924;28.194;2022-12-07T03:47:29;85182.38;;;22.77;30.50
55486;BME280;49383;-25.924;28.194;2022-12-07T03:49:53;85184.24;;;22.80;30.92
55486;BME280;49383;-25.924;28.194;2022-12-07T03:52:20;85183.84;;;22.81;30.34
55486;BME280;49383;-25.924;28.194;2022-12-07T03:54:45;85187.52;;;22.84;29.79
55486;BME280;49383;-25.924;28.194;2022-12-07T03:57:06;85181.56;;;22.97;30.32
55486;BME280;49383;-25.924;28.194;2022-12-07T03:59:30;85188.76;;;22.77;30.08
55486;BME280;49383;-25.924;28.194;2022-12-07T04:01:57;85185.22;;;22.80;30.29
55486;BME280;49383;-25.924;28.194;2022-12-07T04:04:20;85180.20;;;22.77;30.62
55486;BME280;49383;-25.924;28.194;2022-12-07T04:06:45;85179.10;;;22.99;30.33
55486;BME280;49383;-25.924;28.194;2022-12-07T04:09:10;85191.42;;;22.97;30.63
55486;BME280;49383;-25.924;28.194;2022-12-07T04:11:35;85195.80;;;22.77;30.50
55486;BME280;49383;-25.924;28.194;2022-12-07T04:14:01;85196.50;;;22.98;30.92
55486;BME280;49383;-25.924;28.194;2022-12-07T04:16:25;85191.36;;;22.95;31.21
55486;BME280;49383;-25.924;28.194;2022-12-07T04:18:50;85197.18;;;22.97;31.64
55486;BME280;49383;-25.924;28.194;2022-12-07T04:21:15;85210.17;;;22.55;32.67
55486;BME280;49383;-25.924;28.194;2022-12-07T04:23:41;85212.44;;;22.82;33.25
55486;BME280;49383;-25.924;28.194;2022-12-07T04:26:06;85215.23;;;22.92;34.35
55486;BME280;49383;-25.924;28.194;2022-12-07T04:28:31;85211.04;;;22.71;33.89
55486;BME280;49383;-25.924;28.194;2022-12-07T04:30:56;85206.29;;;22.70;34.25
55486;BME280;49383;-25.924;28.194;2022-12-07T04:33:22;85204.46;;;23.18;33.81
55486;BME280;49383;-25.924;28.194;2022-12-07T04:35:46;85211.85;;;23.16;33.21
55486;BME280;49383;-25.924;28.194;2022-12-07T04:38:11;85219.47;;;22.72;34.26
55486;BME280;49383;-25.924;28.194;2022-12-07T04:40:37;85223.74;;;22.77;34.32
55486;BME280;49383;-25.924;28.194;2022-12-07T04:43:02;85228.51;;;22.72;33.89
55486;BME280;49383;-25.924;28.194;2022-12-07T04:45:27;85219.40;;;22.70;33.70
55486;BME280;49383;-25.924;28.194;2022-12-07T04:47:52;85220.96;;;22.42;33.67
55486;BME280;49383;-25.924;28.194;2022-12-07T04:50:18;85218.19;;;22.92;33.53
55486;BME280;49383;-25.924;28.194;2022-12-07T04:52:43;85217.95;;;22.71;34.03
55486;BME280;49383;-25.924;28.194;2022-12-07T04:55:09;85220.26;;;23.05;34.15
55486;BME280;49383;-25.924;28.194;2022-12-07T04:57:34;85224.33;;;23.06;33.85
55486;BME280;49383;-25.924;28.194;2022-12-07T04:59:59;85233.93;;;22.95;33.35
55486;BME280;49383;-25.924;28.194;2022-12-07T05:02:24;85237.56;;;22.96;33.58
55486;BME280;49383;-25.924;28.194;2022-12-07T05:04:50;85236.81;;;22.71;33.77
55486;BME280;49383;-25.924;28.194;2022-12-07T05:07:15;85239.44;;;22.72;34.18
55486;BME280;49383;-25.924;28.194;2022-12-07T05:09:40;85239.08;;;23.00;34.30
55486;BME280;49383;-25.924;28.194;2022-12-07T05:12:05;85246.20;;;22.77;33.64
55486;BME280;49383;-25.924;28.194;2022-12-07T05:14:30;85247.04;;;23.01;33.50
55486;BME280;49383;-25.924;28.194;2022-12-07T05:16:55;85247.71;;;22.72;33.42
55486;BME280;49383;-25.924;28.194;2022-12-07T05:19:20;85252.16;;;22.85;33.46
55486;BME280;49383;-25.924;28.194;2022-12-07T05:21:45;85259.76;;;23.04;33.93
55486;BME280;49383;-25.924;28.194;2022-12-07T05:24:12;85261.96;;;23.05;33.39
55486;BME280;49383;-25.924;28.194;2022-12-07T05:26:35;85266.54;;;23.03;33.39
55486;BME280;49383;-25.924;28.194;2022-12-07T05:29:00;85271.21;;;23.27;33.07
55486;BME280;49383;-25.924;28.194;2022-12-07T05:31:26;85268.35;;;22.96;33.67
55486;BME280;49383;-25.924;28.194;2022-12-07T05:33:50;85270.86;;;23.08;34.21
55486;BME280;49383;-25.924;28.194;2022-12-07T05:36:15;85272.44;;;23.08;33.59
55486;BME280;49383;-25.924;28.194;2022-12-07T05:38:40;85274.94;;;23.12;33.25
55486;BME280;49383;-25.924;28.194;2022-12-07T05:41:06;85276.21;;;23.14;33.29
55486;BME280;49383;-25.924;28.194;2022-12-07T05:43:30;85276.61;;;23.11;33.64
55486;BME280;49383;-25.924;28.194;2022-12-07T05:45:56;85273.85;;;23.22;33.97
55486;BME280;49383;-25.924;28.194;2022-12-07T05:48:21;85275.24;;;23.30;33.54
55486;BME280;49383;-25.924;28.194;2022-12-07T05:50:48;85275.91;;;23.34;33.99
55486;BME280;49383;-25.924;28.194;2022-12-07T05:53:11;85272.80;;;23.35;33.51
55486;BME280;49383;-25.924;28.194;2022-12-07T05:55:36;85274.18;;;23.60;33.68
55486;BME280;49383;-25.924;28.194;2022-12-07T05:58:02;85285.06;;;23.36;34.08
55486;BME280;49383;-25.924;28.194;2022-12-07T06:00:27;85283.34;;;23.08;34.29
55486;BME280;49383;-25.924;28.194;2022-12-07T06:02:52;85280.23;;;23.53;33.67
55486;BME280;49383;-25.924;28.194;2022-12-07T06:05:17;85286.06;;;23.50;33.04
55486;BME280;49383;-25.924;28.194;2022-12-07T06:07:42;85282.81;;;23.41;32.65
55486;BME280;49383;-25.924;28.194;2022-12-07T06:10:08;85283.36;;;23.35;32.86
55486;BME280;49383;-25.924;28.194;2022-12-07T06:12:32;85278.98;;;23.23;33.09
55486;BME280;49383;-25.924;28.194;2022-12-07T06:14:57;85272.60;;;23.10;32.87
55486;BME280;49383;-25.924;28.194;2022-12-07T06:17:22;85271.70;;;23.08;32.74
55486;BME280;49383;-25.924;28.194;2022-12-07T06:19:47;85271.58;;;23.49;32.61
55486;BME280;49383;-25.924;28.194;2022-12-07T06:22:12;85272.44;;;23.46;32.97
55486;BME280;49383;-25.924;28.194;2022-12-07T06:24:37;85273.65;;;23.29;33.27
55486;BME280;49383;-25.924;28.194;2022-12-07T06:27:02;85271.90;;;23.38;33.67
55486;BME280;49383;-25.924;28.194;2022-12-07T06:29:27;85272.07;;;23.40;33.59
55486;BME280;49383;-25.924;28.194;2022-12-07T06:31:52;85272.99;;;23.18;33.31
55486;BME280;49383;-25.924;28.194;2022-12-07T06:34:20;85272.53;;;23.18;33.53
55486;BME280;49383;-25.924;28.194;2022-12-07T06:36:42;85268.27;;;23.22;33.46
55486;BME280;49383;-25.924;28.194;2022-12-07T06:39:08;85265.47;;;23.75;33.57
55486;BME280;49383;-25.924;28.194;2022-12-07T06:41:33;85269.31;;;23.32;34.28
55486;BME280;49383;-25.924;28.194;2022-12-07T06:43:59;85263.73;;;23.40;35.45
55486;BME280;49383;-25.924;28.194;2022-12-07T06:46:24;85262.11;;;23.57;34.35
55486;BME280;49383;-25.924;28.194;2022-12-07T06:48:49;85256.91;;;23.56;34.50
55486;BME280;49383;-25.924;28.194;2022-12-07T06:51:14;85260.35;;;23.62;34.34
55486;BME280;49383;-25.924;28.194;2022-12-07T06:53:40;85258.47;;;23.93;34.51
55486;BME280;49383;-25.924;28.194;2022-12-07T06:56:06;85260.00;;;23.69;33.93
55486;BME280;49383;-25.924;28.194;2022-12-07T06:58:30;85262.62;;;23.64;33.03
55486;BME280;49383;-25.924;28.194;2022-12-07T07:00:56;85262.38;;;23.65;32.51
55486;BME280;49383;-25.924;28.194;2022-12-07T07:03:22;85260.28;;;23.42;33.28
55486;BME280;49383;-25.924;28.194;2022-12-07T07:05:47;85260.57;;;23.57;32.76
55486;BME280;49383;-25.924;28.194;2022-12-07T07:08:14;85257.93;;;23.81;32.89
55486;BME280;49383;-25.924;28.194;2022-12-07T07:10:38;85252.86;;;23.61;31.40
55486;BME280;49383;-25.924;28.194;2022-12-07T07:13:04;85252.41;;;23.79;32.27
55486;BME280;49383;-25.924;28.194;2022-12-07T07:15:29;85253.35;;;24.06;31.33
55486;BME280;49383;-25.924;28.194;2022-12-07T07:17:53;85250.63;;;23.62;32.58
55486;BME280;49383;-25.924;28.194;2022-12-07T07:20:18;85248.59;;;23.78;32.65
55486;BME280;49383;-25.924;28.194;2022-12-07T07:22:44;85245.41;;;23.65;33.01
55486;BME280;49383;-25.924;28.194;2022-12-07T07:25:10;85244.94;;;23.78;33.49
55486;BME280;49383;-25.924;28.194;2022-12-07T07:27:36;85241.98;;;23.86;33.90
55486;BME280;49383;-25.924;28.194;2022-12-07T07:30:02;85240.60;;;24.20;34.32
55486;BME280;49383;-25.924;28.194;2022-12-07T07:32:27;85242.65;;;23.78;34.39
55486;BME280;49383;-25.924;28.194;2022-12-07T07:34:52;85244.03;;;23.83;34.80
55486;BME280;49383;-25.924;28.194;2022-12-07T07:37:18;85247.90;;;24.38;34.90
55486;BME280;49383;-25.924;28.194;2022-12-07T07:39:43;85251.34;;;24.20;35.05
55486;BME280;49383;-25.924;28.194;2022-12-07T07:42:09;85251.62;;;24.02;35.01
55486;BME280;49383;-25.924;28.194;2022-12-07T07:44:35;85249.03;;;24.29;35.26
55486;BME280;49383;-25.924;28.194;2022-12-07T07:47:00;85248.88;;;24.08;35.59
55486;BME280;49383;-25.924;28.194;2022-12-07T07:49:26;85246.49;;;24.33;35.37
55486;BME280;49383;-25.924;28.194;2022-12-07T07:51:52;85244.93;;;24.36;35.85
55486;BME280;49383;-25.924;28.194;2022-12-07T07:54:18;85245.95;;;24.43;35.26
55486;BME280;49383;-25.924;28.194;2022-12-07T07:56:43;85244.31;;;24.25;35.52
55486;BME280;49383;-25.924;28.194;2022-12-07T07:59:10;85239.86;;;24.47;35.48
55486;BME280;49383;-25.924;28.194;2022-12-07T08:01:35;85234.20;;;24.30;35.33
55486;BME280;49383;-25.924;28.194;2022-12-07T08:04:01;85229.22;;;24.34;35.43
55486;BME280;49383;-25.924;28.194;2022-12-07T08:06:27;85227.41;;;24.59;35.44
55486;BME280;49383;-25.924;28.194;2022-12-07T08:08:53;85217.55;;;24.39;35.34
55486;BME280;49383;-25.924;28.194;2022-12-07T08:11:19;85219.63;;;24.92;35.36
55486;BME280;49383;-25.924;28.194;2022-12-07T08:13:46;85215.19;;;24.44;35.50
55486;BME280;49383;-25.924;28.194;2022-12-07T08:16:10;85212.18;;;24.44;35.57
55486;BME280;49383;-25.924;28.194;2022-12-07T08:18:37;85208.75;;;24.50;35.75
55486;BME280;49383;-25.924;28.194;2022-12-07T08:21:02;85207.75;;;24.57;35.74
55486;BME280;49383;-25.924;28.194;2022-12-07T08:23:28;85205.96;;;24.61;35.35
55486;BME280;49383;-25.924;28.194;2022-12-07T08:25:53;85205.28;;;24.64;35.37
55486;BME280;49383;-25.924;28.194;2022-12-07T08:28:19;85206.63;;;24.88;35.57
55486;BME280;49383;-25.924;28.194;2022-12-07T08:30:45;85206.56;;;24.95;35.61
55486;BME280;49383;-25.924;28.194;2022-12-07T08:33:11;85204.00;;;24.68;35.47
55486;BME280;49383;-25.924;28.194;2022-12-07T08:35:37;85207.90;;;24.92;35.65
55486;BME280;49383;-25.924;28.194;2022-12-07T08:38:03;85205.43;;;24.71;35.62
55486;BME280;49383;-25.924;28.194;2022-12-07T08:40:29;85201.12;;;24.69;35.41
55486;BME280;49383;-25.924;28.194;2022-12-07T08:42:55;85199.37;;;24.72;35.57
55486;BME280;49383;-25.924;28.194;2022-12-07T08:45:21;85196.85;;;24.72;35.51
55486;BME280;49383;-25.924;28.194;2022-12-07T08:47:50;85199.28;;;25.19;35.48
55486;BME280;49383;-25.924;28.194;2022-12-07T08:50:13;85198.45;;;24.71;35.80
55486;BME280;49383;-25.924;28.194;2022-12-07T08:52:38;85202.98;;;24.74;35.69
55486;BME280;49383;-25.924;28.194;2022-12-07T08:55:04;85201.05;;;24.76;35.69
55486;BME280;49383;-25.924;28.194;2022-12-07T08:57:29;85200.54;;;24.81;35.64
55486;BME280;49383;-25.924;28.194;2022-12-07T08:59:55;85190.99;;;24.85;35.49
55486;BME280;49383;-25.924;28.194;2022-12-07T09:02:21;85193.99;;;24.86;35.51
55486;BME280;49383;-25.924;28.194;2022-12-07T09:04:47;85191.82;;;25.02;35.55
55486;BME280;49383;-25.924;28.194;2022-12-07T09:07:13;85190.06;;;24.79;35.65
55486;BME280;49383;-25.924;28.194;2022-12-07T09:09:38;85188.20;;;24.83;35.57
55486;BME280;49383;-25.924;28.194;2022-12-07T09:12:05;85183.99;;;24.83;35.65
55486;BME280;49383;-25.924;28.194;2022-12-07T09:14:30;85186.21;;;25.07;35.89
55486;BME280;49383;-25.924;28.194;2022-12-07T09:19:22;85186.64;;;24.88;35.53
55486;BME280;49383;-25.924;28.194;2022-12-07T09:21:48;85185.92;;;25.07;35.98
55486;BME280;49383;-25.924;28.194;2022-12-07T09:24:13;85180.96;;;24.84;36.11
55486;BME280;49383;-25.924;28.194;2022-12-07T09:26:38;85182.17;;;25.10;35.71
55486;BME280;49383;-25.924;28.194;2022-12-07T09:29:04;85180.33;;;24.84;36.02
55486;BME280;49383;-25.924;28.194;2022-12-07T09:31:30;85177.87;;;25.07;35.59
55486;BME280;49383;-25.924;28.194;2022-12-07T09:33:57;85179.16;;;25.06;35.61
55486;BME280;49383;-25.924;28.194;2022-12-07T09:36:22;85178.47;;;24.81;35.65
55486;BME280;49383;-25.924;28.194;2022-12-07T09:38:47;85176.88;;;24.80;35.65
55486;BME280;49383;-25.924;28.194;2022-12-07T09:41:13;85174.40;;;24.84;35.88
55486;BME280;49383;-25.924;28.194;2022-12-07T09:43:39;85173.10;;;24.83;36.25
55486;BME280;49383;-25.924;28.194;2022-12-07T09:46:05;85173.00;;;25.00;35.71
55486;BME280;49383;-25.924;28.194;2022-12-07T09:48:33;85174.07;;;24.98;35.70
55486;BME280;49383;-25.924;28.194;2022-12-07T09:50:59;85174.54;;;25.00;36.05
55486;BME280;49383;-25.924;28.194;2022-12-07T09:53:26;85174.40;;;24.80;36.34
55486;BME280;49383;-25.924;28.194;2022-12-07T09:55:48;85174.01;;;24.79;36.32
55486;BME280;49383;-25.924;28.194;2022-12-07T09:58:20;85169.22;;;24.93;36.16
55486;BME280;49383;-25.924;28.194;2022-12-07T10:00:40;85169.50;;;24.71;35.85
55486;BME280;49383;-25.924;28.194;2022-12-07T10:03:09;85171.30;;;24.73;35.95
55486;BME280;49383;-25.924;28.194;2022-12-07T10:05:36;85174.15;;;24.96;36.60
55486;BME280;49383;-25.924;28.194;2022-12-07T10:07:58;85177.17;;;24.66;36.50
55486;BME280;49383;-25.924;28.194;2022-12-07T10:10:28;85178.85;;;25.08;36.77
55486;BME280;49383;-25.924;28.194;2022-12-07T10:12:55;85185.14;;;25.03;36.74
55486;BME280;49383;-25.924;28.194;2022-12-07T10:15:15;85187.65;;;25.02;36.90
55486;BME280;49383;-25.924;28.194;2022-12-07T10:17:47;85187.22;;;24.67;36.89
55486;BME280;49383;-25.924;28.194;2022-12-07T10:22:32;85185.30;;;24.67;37.03
55486;BME280;49383;-25.924;28.194;2022-12-07T10:25:07;85180.14;;;24.87;37.14
55486;BME280;49383;-25.924;28.194;2022-12-07T10:27:31;85169.85;;;24.58;37.12
55486;BME280;49383;-25.924;28.194;2022-12-07T10:29:52;85160.73;;;24.59;37.13
55486;BME280;49383;-25.924;28.194;2022-12-07T10:32:27;85151.54;;;24.50;37.27
55486;BME280;49383;-25.924;28.194;2022-12-07T10:34:42;85152.75;;;24.83;37.21
55486;BME280;49383;-25.924;28.194;2022-12-07T10:37:15;85155.66;;;24.52;37.29
55486;BME280;49383;-25.924;28.194;2022-12-07T10:39:40;85154.86;;;24.75;37.34
55486;BME280;49383;-25.924;28.194;2022-12-07T10:42:01;85156.64;;;24.42;37.43
55486;BME280;49383;-25.924;28.194;2022-12-07T10:44:27;85152.59;;;24.69;37.43
55486;BME280;49383;-25.924;28.194;2022-12-07T10:47:02;85151.69;;;24.60;37.57
55486;BME280;49383;-25.924;28.194;2022-12-07T10:51:45;85146.87;;;24.58;37.59
55486;BME280;49383;-25.924;28.194;2022-12-07T10:54:12;85142.44;;;24.30;37.61
55486;BME280;49383;-25.924;28.194;2022-12-07T10:59:07;85143.85;;;24.48;37.72
55486;BME280;49383;-25.924;28.194;2022-12-07T11:01:25;85148.43;;;24.48;37.72
55486;BME280;49383;-25.924;28.194;2022-12-07T11:03:53;85147.10;;;24.22;37.71
55486;BME280;49383;-25.924;28.194;2022-12-07T11:06:18;85143.63;;;24.76;37.62
55486;BME280;49383;-25.924;28.194;2022-12-07T11:08:50;85145.80;;;24.53;37.64
55486;BME280;49383;-25.924;28.194;2022-12-07T11:11:06;85144.75;;;24.21;37.68
55486;BME280;49383;-25.924;28.194;2022-12-07T11:13:33;85147.84;;;24.54;37.64
55486;BME280;49383;-25.924;28.194;2022-12-07T11:16:02;85147.22;;;24.58;37.57
55486;BME280;49383;-25.924;28.194;2022-12-07T11:18:24;85146.95;;;24.65;37.52
55486;BME280;49383;-25.924;28.194;2022-12-07T11:20:48;85145.58;;;24.68;37.46
55486;BME280;49383;-25.924;28.194;2022-12-07T11:23:16;85145.40;;;24.68;37.48
55486;BME280;49383;-25.924;28.194;2022-12-07T11:25:37;85146.70;;;24.70;37.38
55486;BME280;49383;-25.924;28.194;2022-12-07T11:28:09;85155.06;;;24.76;37.29
55486;BME280;49383;-25.924;28.194;2022-12-07T11:30:31;85152.35;;;24.86;37.21
55486;BME280;49383;-25.924;28.194;2022-12-07T11:32:58;85151.26;;;24.57;37.20
55486;BME280;49383;-25.924;28.194;2022-12-07T11:35:24;85147.95;;;24.91;37.22
55486;BME280;49383;-25.924;28.194;2022-12-07T11:37:41;85148.64;;;24.93;37.15
55486;BME280;49383;-25.924;28.194;2022-12-07T11:40:16;85144.38;;;25.01;37.11
55486;BME280;49383;-25.924;28.194;2022-12-07T11:42:38;85147.28;;;24.94;37.17
55486;BME280;49383;-25.924;28.194;2022-12-07T11:45:04;85141.12;;;25.02;37.07
55486;BME280;49383;-25.924;28.194;2022-12-07T11:47:28;85138.27;;;24.66;37.19
55486;BME280;49383;-25.924;28.194;2022-12-07T11:49:54;85135.44;;;25.05;36.94
55486;BME280;49383;-25.924;28.194;2022-12-07T11:52:22;85128.79;;;24.77;36.78
55486;BME280;49383;-25.924;28.194;2022-12-07T11:54:41;85134.36;;;25.02;37.09
55486;BME280;49383;-25.924;28.194;2022-12-07T11:57:13;85134.85;;;24.97;37.10
55486;BME280;49383;-25.924;28.194;2022-12-07T11:59:36;85131.60;;;24.92;37.20
55486;BME280;49383;-25.924;28.194;2022-12-07T12:02:03;85134.56;;;24.71;37.15
55486;BME280;49383;-25.924;28.194;2022-12-07T12:04:30;85142.19;;;24.98;37.15
55486;BME280;49383;-25.924;28.194;2022-12-07T12:06:49;85141.44;;;24.76;37.08
55486;BME280;49383;-25.924;28.194;2022-12-07T12:09:17;85149.02;;;25.00;37.14
55486;BME280;49383;-25.924;28.194;2022-12-07T12:11:56;85157.07;;;24.98;37.14
55486;BME280;49383;-25.924;28.194;2022-12-07T12:14:16;85159.53;;;25.00;37.10
55486;BME280;49383;-25.924;28.194;2022-12-07T12:19:10;85165.80;;;24.99;37.13
55486;BME280;49383;-25.924;28.194;2022-12-07T12:21:27;85171.40;;;24.93;37.17
55486;BME280;49383;-25.924;28.194;2022-12-07T12:23:54;85167.30;;;24.55;37.31
55486;BME280;49383;-25.924;28.194;2022-12-07T12:26:19;85169.22;;;24.84;37.26
55486;BME280;49383;-25.924;28.194;2022-12-07T12:28:48;85178.90;;;24.61;37.19
55486;BME280;49383;-25.924;28.194;2022-12-07T12:31:12;85175.79;;;24.96;37.12
55486;BME280;49383;-25.924;28.194;2022-12-07T12:33:33;85171.18;;;25.03;37.04
55486;BME280;49383;-25.924;28.194;2022-12-07T12:38:29;85172.02;;;24.79;37.27
55486;BME280;49383;-25.924;28.194;2022-12-07T12:40:49;85163.09;;;24.97;37.05
55486;BME280;49383;-25.924;28.194;2022-12-07T12:45:41;85159.11;;;24.78;37.23